Time;durP1;ratioP1;P1;durP2;ratioP2;P2;SDS_P1;SDS_P2;PMS_P1;PMS_P2;Temp;Humidity;BMP_temperature;BMP_pressure;BME280_temperature;BME280_humidity;BME280_pressure;Samples;Min_cycle;Max_cycle;Signal;HPM_P1;HPM_P2
2022/01/31 00:01:45;;;;;;;;;6.50;6.50;;;;;9.55;91.92;102038.66;5082274;27;45433;-89
2022/01/31 00:04:10;;;;;;;;;10.75;6.00;;;;;9.54;91.67;102026.53;5084085;27;45314;-84
2022/01/31 00:06:36;;;;;;;;;7.75;5.75;;;;;9.51;91.87;102028.91;5088856;28;46086;-85
2022/01/31 00:09:02;;;;;;;;;10.25;8.50;;;;;9.47;92.46;102001.03;5082455;28;45323;-85
2022/01/31 00:11:27;;;;;;;;;6.75;6.75;;;;;9.49;92.12;101991.69;5081994;28;45306;-84
2022/01/31 00:14:09;;;;;;;;;6.50;5.25;;;;;9.51;92.70;101994.38;5064609;28;45513;-84
2022/01/31 00:16:34;;;;;;;;;9.75;5.00;;;;;9.46;93.09;101978.56;5082754;27;45486;-83
2022/01/31 00:19:00;;;;;;;;;9.25;6.00;;;;;9.39;93.65;101974.69;5084178;27;45318;-84
2022/01/31 00:21:26;;;;;;;;;6.75;6.50;;;;;9.37;94.44;101971.09;5085467;28;45366;-84
2022/01/31 00:23:52;;;;;;;;;4.00;3.00;;;;;9.32;95.33;101958.63;5065440;28;45352;-81
2022/01/31 00:26:18;;;;;;;;;9.00;6.00;;;;;9.28;96.33;101968.75;5079750;28;45391;-83
2022/01/31 00:28:43;;;;;;;;;7.25;6.00;;;;;9.26;96.92;101977.22;5060642;28;45340;-82
2022/01/31 00:31:09;;;;;;;;;10.00;7.25;;;;;9.24;97.12;101968.44;5079039;27;45482;-86
2022/01/31 00:33:34;;;;;;;;;6.25;5.00;;;;;9.23;98.25;101953.72;5081046;27;45422;-83
2022/01/31 00:36:00;;;;;;;;;11.25;7.75;;;;;9.26;98.56;101965.16;5080663;27;45447;-88
2022/01/31 00:38:26;;;;;;;;;9.00;6.00;;;;;9.28;98.96;101965.28;5080048;27;45403;-83
2022/01/31 00:40:51;;;;;;;;;11.00;6.00;;;;;9.27;98.72;101961.78;5081545;28;45449;-86
2022/01/31 00:43:19;;;;;;;;;11.00;9.50;;;;;9.25;98.82;101963.38;5082972;27;45592;-86
2022/01/31 00:45:59;;;;;;;;;6.00;5.25;;;;;9.33;98.67;101982.00;5080117;27;45556;-81
2022/01/31 00:48:27;;;;;;;;;10.00;7.75;;;;;9.38;98.45;101974.56;5078948;27;45411;-84
2022/01/31 00:50:52;;;;;;;;;7.50;5.00;;;;;9.37;98.05;101958.16;5079183;28;45508;-85
2022/01/31 00:53:18;;;;;;;;;7.25;6.50;;;;;9.39;97.70;101963.44;5079224;28;45426;-81
2022/01/31 00:55:44;;;;;;;;;6.75;5.25;;;;;9.38;98.07;101959.97;5079518;28;45527;-84
2022/01/31 00:58:09;;;;;;;;;5.75;5.25;;;;;9.43;97.94;101968.91;5059990;28;45828;-87
2022/01/31 01:00:35;;;;;;;;;5.75;5.75;;;;;9.45;97.41;101950.91;5077757;28;45516;-86
2022/01/31 01:03:01;;;;;;;;;6.50;5.00;;;;;9.45;97.35;101933.72;5078287;28;45520;-83
2022/01/31 01:05:27;;;;;;;;;6.00;6.00;;;;;9.49;96.92;101927.06;5079295;27;45257;-81
2022/01/31 01:07:53;;;;;;;;;5.50;4.75;;;;;9.55;96.60;101929.16;5061117;28;45496;-84
2022/01/31 01:10:19;;;;;;;;;6.25;5.50;;;;;9.53;95.78;101926.50;5079215;27;45335;-84
2022/01/31 01:12:45;;;;;;;;;4.00;4.00;;;;;9.49;95.30;101929.66;5079784;27;45220;-83
2022/01/31 01:15:11;;;;;;;;;4.00;3.25;;;;;9.47;96.26;101914.84;5079294;27;46332;-85
2022/01/31 01:17:37;;;;;;;;;7.00;5.00;;;;;9.51;96.03;101902.22;5081771;28;45355;-84
2022/01/31 01:20:04;;;;;;;;;5.25;3.50;;;;;9.50;96.03;101900.41;5086360;27;45398;-86
2022/01/31 01:22:30;;;;;;;;;4.75;4.25;;;;;9.54;96.22;101902.44;5063909;28;45354;-83
2022/01/31 01:24:56;;;;;;;;;4.25;4.25;;;;;9.49;95.85;101871.91;5079982;27;45436;-83
2022/01/31 01:27:22;;;;;;;;;5.25;2.25;;;;;9.54;96.52;101874.00;5060233;28;45588;-81
2022/01/31 01:29:48;;;;;;;;;4.00;3.00;;;;;9.51;96.59;101837.59;5079277;28;45378;-81
2022/01/31 01:32:14;;;;;;;;;2.75;2.75;;;;;9.51;97.10;101844.44;5060611;28;45401;-81
2022/01/31 01:34:40;;;;;;;;;5.25;4.25;;;;;9.45;97.49;101829.41;5079141;28;45239;-82
2022/01/31 01:37:06;;;;;;;;;5.00;3.00;;;;;9.40;98.33;101823.06;5079733;28;45235;-83
2022/01/31 01:39:32;;;;;;;;;4.00;2.75;;;;;9.39;99.11;101822.19;5083505;27;45554;-82
2022/01/31 01:41:58;;;;;;;;;3.75;3.00;;;;;9.40;99.26;101825.66;5082361;28;45430;-81
2022/01/31 01:44:44;;;;;;;;;2.25;2.25;;;;;9.39;100.00;101816.09;5061072;28;47654;-81
2022/01/31 01:47:11;;;;;;;;;6.00;2.00;;;;;9.40;100.00;101826.53;5078799;27;45360;-84
2022/01/31 01:49:37;;;;;;;;;5.25;3.25;;;;;9.38;100.00;101819.47;5060622;28;45488;-84
2022/01/31 01:52:03;;;;;;;;;7.25;2.50;;;;;9.38;100.00;101812.63;5079724;27;45416;-82
2022/01/31 01:54:29;;;;;;;;;2.00;2.00;;;;;9.35;100.00;101794.34;5079525;27;46033;-83
2022/01/31 01:56:55;;;;;;;;;4.00;4.00;;;;;9.38;100.00;101827.22;5081207;27;45277;-85
2022/01/31 01:59:22;;;;;;;;;3.75;3.25;;;;;9.39;100.00;101821.28;5061775;28;45359;-85
2022/01/31 02:01:48;;;;;;;;;7.50;4.00;;;;;9.37;100.00;101820.28;5082310;28;45334;-84
2022/01/31 02:04:13;;;;;;;;;6.25;4.25;;;;;9.41;100.00;101819.69;5082671;28;45822;-90
2022/01/31 02:06:40;;;;;;;;;5.00;3.75;;;;;9.40;100.00;101816.19;5083149;28;45401;-89
2022/01/31 02:09:06;;;;;;;;;3.50;2.50;;;;;9.41;100.00;101802.47;5087296;28;45278;-90
2022/01/31 02:11:31;;;;;;;;;3.25;3.00;;;;;9.40;100.00;101797.22;5086854;27;45687;-87
2022/01/31 02:13:57;;;;;;;;;5.25;2.50;;;;;9.37;100.00;101786.66;5087423;28;46527;-88
2022/01/31 02:16:23;;;;;;;;;5.00;4.25;;;;;9.33;100.00;101770.06;5085091;27;45271;-90
2022/01/31 02:18:50;;;;;;;;;3.25;2.75;;;;;9.29;100.00;101768.97;5087083;27;45221;-89
2022/01/31 02:21:17;;;;;;;;;10.00;3.00;;;;;9.31;100.00;101771.66;5088163;28;45324;-89
2022/01/31 02:23:43;;;;;;;;;3.00;3.00;;;;;9.28;100.00;101776.66;5083510;28;46233;-89
2022/01/31 02:26:09;;;;;;;;;4.00;4.00;;;;;9.28;100.00;101774.06;5083111;28;45286;-91
2022/01/31 02:28:39;;;;;;;;;2.00;2.00;;;;;9.27;100.00;101780.03;5082051;28;45350;-89
2022/01/31 02:31:05;;;;;;;;;3.25;1.75;;;;;9.21;100.00;101754.66;5082138;28;45312;-90
2022/01/31 02:33:31;;;;;;;;;6.00;4.00;;;;;9.17;100.00;101747.50;5082934;27;45691;-90
2022/01/31 02:36:02;;;;;;;;;5.75;2.75;;;;;9.15;100.00;101733.59;5081758;28;45787;-88
2022/01/31 02:38:28;;;;;;;;;4.00;4.00;;;;;9.09;100.00;101748.69;5085903;27;45503;-90
2022/01/31 02:40:55;;;;;;;;;6.00;5.00;;;;;9.06;100.00;101756.22;5085907;28;45256;-81
2022/01/31 02:43:30;;;;;;;;;1.00;1.00;;;;;9.01;100.00;101749.88;5066270;28;46698;-84
2022/01/31 02:45:56;;;;;;;;;5.00;3.00;;;;;9.00;100.00;101764.47;5084268;28;45224;-86
2022/01/31 02:48:24;;;;;;;;;3.00;2.50;;;;;8.96;100.00;101759.91;5082651;28;45324;-87
2022/01/31 02:50:51;;;;;;;;;4.75;3.50;;;;;8.99;100.00;101736.84;5087387;27;45304;-88
2022/01/31 02:53:28;;;;;;;;;4.00;2.50;;;;;8.92;100.00;101720.03;5061836;28;46894;-91
2022/01/31 02:55:57;;;;;;;;;5.00;3.00;;;;;8.93;100.00;101739.91;5080023;27;45177;-85
2022/01/31 02:58:24;;;;;;;;;5.75;3.00;;;;;8.86;100.00;101729.06;5079007;28;45439;-80
2022/01/31 03:00:50;;;;;;;;;4.75;3.00;;;;;8.86;100.00;101723.91;5078182;28;45521;-81
2022/01/31 03:03:16;;;;;;;;;3.00;3.00;;;;;8.85;100.00;101710.13;5078883;27;45408;-80
2022/01/31 03:05:42;;;;;;;;;4.00;3.50;;;;;8.83;100.00;101697.13;5078473;27;45272;-83
2022/01/31 03:08:07;;;;;;;;;4.50;2.25;;;;;8.79;100.00;101684.78;5077653;27;45279;-80
2022/01/31 03:10:33;;;;;;;;;2.50;2.50;;;;;8.85;100.00;101697.19;5078825;28;45451;-83
2022/01/31 03:13:00;;;;;;;;;2.50;1.75;;;;;8.77;100.00;101664.81;5084916;28;45232;-87
2022/01/31 03:15:26;;;;;;;;;5.00;3.00;;;;;8.69;100.00;101668.59;5081300;27;45256;-86
2022/01/31 03:17:52;;;;;;;;;3.75;2.25;;;;;8.66;100.00;101667.59;5078093;28;45318;-85
2022/01/31 03:20:19;;;;;;;;;2.75;2.00;;;;;8.61;100.00;101678.41;5077811;27;45397;-86
2022/01/31 03:22:46;;;;;;;;;3.50;2.50;;;;;8.61;100.00;101679.28;5080697;28;46157;-82
2022/01/31 03:25:11;;;;;;;;;5.50;2.50;;;;;8.63;100.00;101684.56;5085218;28;45384;-83
2022/01/31 03:27:38;;;;;;;;;1.00;1.00;;;;;8.69;100.00;101695.28;5065845;28;45228;-83
2022/01/31 03:30:10;;;;;;;;;2.00;2.00;;;;;8.72;100.00;101704.91;5088754;28;45633;-80
2022/01/31 03:32:36;;;;;;;;;2.75;2.75;;;;;8.74;100.00;101664.63;5065945;27;47142;-85
2022/01/31 03:35:03;;;;;;;;;2.25;2.00;;;;;8.80;100.00;101680.53;5081053;28;45270;-84
2022/01/31 03:37:28;;;;;;;;;3.50;1.00;;;;;8.78;100.00;101674.38;5079834;27;45352;-82
2022/01/31 03:39:54;;;;;;;;;5.50;3.50;;;;;8.77;100.00;101664.81;5078657;28;45166;-88
2022/01/31 03:42:20;;;;;;;;;3.00;2.50;;;;;8.76;100.00;101670.78;5077502;28;45396;-87
2022/01/31 03:44:47;;;;;;;;;1.50;1.00;;;;;8.78;100.00;101654.59;5060175;28;45296;-84
2022/01/31 03:47:13;;;;;;;;;2.00;1.00;;;;;8.83;100.00;101657.47;5060325;28;45491;-88
2022/01/31 03:49:39;;;;;;;;;1.75;1.75;;;;;8.81;100.00;101665.13;5080109;28;45527;-90
2022/01/31 03:52:05;;;;;;;;;7.00;2.75;;;;;8.87;100.00;101684.38;5060845;28;46939;-90
2022/01/31 03:54:30;;;;;;;;;2.00;2.00;;;;;8.83;100.00;101654.88;5081065;28;45404;-90
2022/01/31 03:56:56;;;;;;;;;3.00;1.00;;;;;8.83;100.00;101644.56;5083686;28;45385;-88
2022/01/31 03:59:22;;;;;;;;;2.75;1.25;;;;;8.78;100.00;101651.13;5085727;28;45474;-91
2022/01/31 04:01:47;;;;;;;;;2.75;2.00;;;;;8.79;100.00;101658.09;5086448;28;46334;-89
2022/01/31 04:04:13;;;;;;;;;3.75;3.00;;;;;8.83;100.00;101678.13;5087846;28;45218;-84
2022/01/31 04:06:40;;;;;;;;;2.50;1.75;;;;;8.90;100.00;101671.69;5081875;28;45256;-84
2022/01/31 04:09:06;;;;;;;;;3.75;2.75;;;;;8.86;100.00;101651.59;5078886;27;45220;-90
2022/01/31 04:11:32;;;;;;;;;8.50;2.00;;;;;8.81;100.00;101659.97;5078213;28;46150;-88
2022/01/31 04:13:58;;;;;;;;;2.75;2.50;;;;;8.78;100.00;101662.34;5079508;28;45675;-91
2022/01/31 04:16:23;;;;;;;;;2.00;1.00;;;;;8.78;100.00;101669.19;5080691;28;45445;-91
2022/01/31 04:18:49;;;;;;;;;3.50;1.00;;;;;8.80;100.00;101665.03;5080246;27;45405;-91
2022/01/31 04:21:15;;;;;;;;;2.00;0.25;;;;;8.84;100.00;101661.84;5080145;28;45299;-91
2022/01/31 04:23:41;;;;;;;;;3.25;0.75;;;;;8.86;100.00;101649.03;5079190;28;45346;-91
2022/01/31 04:26:11;;;;;;;;;1.00;1.00;;;;;8.85;100.00;101653.31;5080510;28;45434;-91
2022/01/31 04:28:45;;;;;;;;;1.25;1.00;;;;;8.89;100.00;101670.81;5085919;28;45431;-90
2022/01/31 04:33:40;;;;;;;;;0.25;0.25;;;;;8.94;100.00;101660.75;5077825;28;45364;-84
2022/01/31 04:36:07;;;;;;;;;0.00;0.00;;;;;8.95;100.00;101667.72;5081503;28;45469;-86
2022/01/31 04:38:34;;;;;;;;;1.50;1.00;;;;;8.93;100.00;101675.34;5063662;28;45434;-87
2022/01/31 04:41:00;;;;;;;;;2.50;1.00;;;;;8.93;100.00;101677.94;5082503;27;45417;-88
2022/01/31 04:43:26;;;;;;;;;1.75;1.75;;;;;8.95;100.00;101671.19;5088320;28;45407;-85
2022/01/31 04:45:53;;;;;;;;;1.00;1.00;;;;;8.97;100.00;101673.84;5093805;28;45279;-89
2022/01/31 04:48:20;;;;;;;;;0.00;0.00;;;;;9.03;100.00;101666.53;5072830;28;45592;-88
2022/01/31 04:50:46;;;;;;;;;1.00;1.00;;;;;9.01;100.00;101662.06;5064886;28;46829;-89
2022/01/31 04:53:13;;;;;;;;;4.50;2.00;;;;;9.01;100.00;101646.56;5081521;27;45271;-87
2022/01/31 04:55:40;;;;;;;;;1.00;0.00;;;;;9.02;100.00;101643.16;5082151;28;45283;-83
2022/01/31 04:58:06;;;;;;;;;2.00;1.00;;;;;9.04;100.00;101672.56;5082460;28;45268;-84
2022/01/31 05:00:32;;;;;;;;;0.75;0.75;;;;;9.05;100.00;101685.59;5064004;28;46711;-90
2022/01/31 05:02:58;;;;;;;;;1.75;1.75;;;;;9.03;100.00;101700.09;5081003;28;45429;-88
2022/01/31 05:05:24;;;;;;;;;1.00;0.00;;;;;9.06;100.00;101677.06;5082384;28;45339;-89
2022/01/31 05:07:52;;;;;;;;;2.00;0.25;;;;;9.08;100.00;101688.38;5086846;28;45437;-89
2022/01/31 05:10:19;;;;;;;;;2.00;1.75;;;;;9.08;100.00;101680.63;5089315;28;45249;-87
2022/01/31 05:12:45;;;;;;;;;0.75;0.75;;;;;9.06;100.00;101691.66;5084198;27;45185;-84
2022/01/31 05:15:10;;;;;;;;;1.00;1.00;;;;;9.10;100.00;101694.53;5086839;27;45304;-85
2022/01/31 05:17:36;;;;;;;;;3.25;1.00;;;;;9.16;100.00;101688.88;5063515;28;45458;-82
2022/01/31 05:20:03;;;;;;;;;5.00;2.00;;;;;9.22;100.00;101715.13;5079020;27;45886;-83
2022/01/31 05:22:28;;;;;;;;;1.00;0.75;;;;;9.26;100.00;101692.94;5080556;28;45849;-82
2022/01/31 05:24:54;;;;;;;;;4.50;2.00;;;;;9.29;100.00;101694.03;5067025;27;45834;-82
2022/01/31 05:27:21;;;;;;;;;1.50;1.50;;;;;9.34;100.00;101701.22;5081846;27;45418;-84
2022/01/31 05:29:46;;;;;;;;;2.00;1.00;;;;;9.34;100.00;101707.25;5079926;28;46219;-86
2022/01/31 05:32:14;;;;;;;;;1.00;1.00;;;;;9.33;100.00;101702.00;5082019;28;45402;-85
2022/01/31 05:34:40;;;;;;;;;2.00;1.00;;;;;9.28;100.00;101701.72;5081721;28;45252;-84
2022/01/31 05:37:06;;;;;;;;;1.00;1.00;;;;;9.25;100.00;101701.50;5079606;28;45523;-84
2022/01/31 05:39:32;;;;;;;;;1.50;0.00;;;;;9.24;100.00;101716.09;5078508;28;45422;-85
2022/01/31 05:41:59;;;;;;;;;0.50;0.50;;;;;9.23;100.00;101706.53;5079462;28;45391;-85
2022/01/31 05:44:25;;;;;;;;;1.00;1.00;;;;;9.20;100.00;101703.78;5079120;27;45323;-83
2022/01/31 05:46:51;;;;;;;;;2.25;1.00;;;;;9.17;100.00;101724.25;5077457;27;45619;-83
2022/01/31 05:49:17;;;;;;;;;2.50;1.00;;;;;9.18;100.00;101692.44;5081462;27;46275;-83
2022/01/31 05:52:01;;;;;;;;;1.50;1.50;;;;;9.17;100.00;101720.78;5066880;28;45457;-88
2022/01/31 05:54:28;;;;;;;;;1.00;1.00;;;;;9.14;100.00;101712.03;5105523;27;45425;-89
2022/01/31 05:56:58;;;;;;;;;1.00;1.00;;;;;9.10;100.00;101693.66;5089446;27;45278;-86
2022/01/31 05:59:25;;;;;;;;;4.50;2.00;;;;;9.12;100.00;101692.06;5100575;27;45761;-88
2022/01/31 06:01:51;;;;;;;;;1.00;1.00;;;;;9.08;100.00;101693.53;5093220;27;45923;-88
2022/01/31 06:04:17;;;;;;;;;4.00;1.00;;;;;9.07;100.00;101699.50;5097324;27;45430;-88
2022/01/31 06:06:42;;;;;;;;;2.50;1.00;;;;;9.06;100.00;101695.16;5100846;27;45592;-87
2022/01/31 06:09:08;;;;;;;;;3.50;2.75;;;;;9.05;100.00;101703.69;5079258;28;45613;-85
2022/01/31 06:11:34;;;;;;;;;1.00;0.00;;;;;9.05;100.00;101721.78;5060844;28;45386;-86
2022/01/31 06:14:02;;;;;;;;;3.00;1.25;;;;;9.05;100.00;101718.28;5090824;27;45363;-82
2022/01/31 06:16:28;;;;;;;;;3.50;1.75;;;;;9.04;100.00;101712.22;5105363;27;45636;-84
2022/01/31 06:19:03;;;;;;;;;4.25;1.00;;;;;9.03;100.00;101725.03;5102932;27;45759;-89
2022/01/31 06:21:29;;;;;;;;;2.50;1.00;;;;;9.05;100.00;101749.28;5073171;28;45642;-88
2022/01/31 06:23:58;;;;;;;;;3.00;1.00;;;;;9.03;100.00;101717.28;5090915;28;45418;-85
2022/01/31 06:26:24;;;;;;;;;1.50;1.50;;;;;9.00;100.00;101710.22;5081191;27;45371;-86
2022/01/31 06:28:50;;;;;;;;;1.00;1.00;;;;;8.99;100.00;101705.84;5082206;27;46414;-87
2022/01/31 06:31:16;;;;;;;;;1.75;0.75;;;;;8.97;100.00;101722.94;5080228;28;45227;-88
2022/01/31 06:33:43;;;;;;;;;0.75;0.75;;;;;9.00;100.00;101717.97;5094666;27;45346;-83
2022/01/31 06:36:09;;;;;;;;;2.00;1.00;;;;;8.98;100.00;101710.13;5082025;28;45632;-86
2022/01/31 06:38:38;;;;;;;;;2.00;1.00;;;;;8.96;100.00;101716.00;5063765;28;47031;-88
2022/01/31 06:41:05;;;;;;;;;1.75;1.75;;;;;8.93;100.00;101723.53;5082422;28;45426;-89
2022/01/31 06:43:31;;;;;;;;;1.00;1.00;;;;;8.90;100.00;101721.66;5064004;28;45292;-85
2022/01/31 06:45:56;;;;;;;;;2.00;2.00;;;;;8.88;100.00;101714.56;5089748;27;45536;-89
2022/01/31 06:48:22;;;;;;;;;0.50;0.50;;;;;8.87;100.00;101739.53;5070533;28;46862;-89
2022/01/31 06:50:48;;;;;;;;;1.50;1.50;;;;;8.87;100.00;101736.94;5086578;27;45410;-87
2022/01/31 06:53:16;;;;;;;;;2.75;1.00;;;;;8.83;100.00;101732.34;5084429;28;45295;-87
2022/01/31 06:55:43;;;;;;;;;2.50;2.00;;;;;8.84;100.00;101736.72;5082274;28;45542;-84
2022/01/31 06:58:09;;;;;;;;;2.50;1.00;;;;;8.80;100.00;101745.09;5076580;28;46161;-84
2022/01/31 07:00:35;;;;;;;;;2.00;0.25;;;;;8.79;100.00;101727.78;5078041;27;45358;-86
2022/01/31 07:03:03;;;;;;;;;2.25;0.00;;;;;8.82;100.00;101740.88;5059807;28;45434;-83
2022/01/31 07:05:29;;;;;;;;;1.00;1.00;;;;;8.82;100.00;101746.06;5077842;27;45544;-89
2022/01/31 07:07:54;;;;;;;;;2.25;0.00;;;;;8.78;100.00;101742.38;5083283;27;45518;-83
2022/01/31 07:10:20;;;;;;;;;1.00;1.00;;;;;8.79;100.00;101740.72;5076780;28;45356;-88
2022/01/31 07:12:52;;;;;;;;;2.00;1.00;;;;;8.80;100.00;101739.91;5077500;28;45478;-81
2022/01/31 07:15:18;;;;;;;;;1.75;1.25;;;;;8.78;100.00;101747.53;5060173;28;45512;-88
2022/01/31 07:17:47;;;;;;;;;1.25;1.00;;;;;8.77;100.00;101760.34;5084330;27;45472;-80
2022/01/31 07:20:34;;;;;;;;;1.75;1.00;;;;;8.73;100.00;101768.69;5091580;27;45819;-80
2022/01/31 07:23:04;;;;;;;;;2.50;1.25;;;;;8.73;100.00;101769.59;5085061;27;45303;-90
2022/01/31 07:25:38;;;;;;;;;2.50;2.00;;;;;8.72;100.00;101761.72;5083307;27;45326;-83
2022/01/31 07:28:12;;;;;;;;;1.75;0.75;;;;;8.75;100.00;101777.44;5092920;27;46116;-83
2022/01/31 07:30:39;;;;;;;;;2.50;1.00;;;;;8.74;100.00;101767.88;5069552;27;45801;-80
2022/01/31 07:33:09;;;;;;;;;2.25;1.00;;;;;8.79;100.00;101779.44;5058141;28;45438;-80
2022/01/31 07:35:35;;;;;;;;;1.75;0.25;;;;;8.83;100.00;101768.50;5076704;27;45553;-80
2022/01/31 07:38:02;;;;;;;;;1.75;1.25;;;;;8.86;100.00;101771.31;5057802;28;47845;-81
2022/01/31 07:40:28;;;;;;;;;1.50;1.25;;;;;8.91;100.00;101774.19;5076627;27;45326;-82
2022/01/31 07:42:53;;;;;;;;;0.75;0.00;;;;;8.97;100.00;101783.25;5076529;28;45391;-82
2022/01/31 07:45:19;;;;;;;;;2.00;1.00;;;;;8.99;100.00;101780.75;5083632;27;45477;-82
2022/01/31 07:47:45;;;;;;;;;1.00;1.00;;;;;8.97;100.00;101796.16;5101807;27;45449;-78
2022/01/31 07:50:12;;;;;;;;;3.00;1.25;;;;;8.99;100.00;101801.41;5082344;27;45443;-75
2022/01/31 07:52:39;;;;;;;;;7.00;3.75;;;;;8.95;100.00;101779.66;5075198;28;45489;-83
2022/01/31 07:55:05;;;;;;;;;0.00;0.00;;;;;8.95;100.00;101779.66;5094402;27;45441;-85
2022/01/31 07:57:31;;;;;;;;;1.00;1.00;;;;;8.94;100.00;101790.78;5085565;27;45898;-81
2022/01/31 07:59:57;;;;;;;;;2.00;1.00;;;;;9.01;100.00;101798.97;5075205;28;45318;-81
2022/01/31 08:02:22;;;;;;;;;4.00;2.00;;;;;9.05;100.00;101799.28;5075867;28;45367;-83
2022/01/31 08:04:48;;;;;;;;;1.00;1.00;;;;;9.06;100.00;101800.16;5076201;28;45394;-86
2022/01/31 08:07:16;;;;;;;;;1.25;1.25;;;;;9.11;100.00;101830.66;5070197;28;45386;-79
2022/01/31 08:09:42;;;;;;;;;2.25;1.00;;;;;9.14;100.00;101824.81;5074185;28;46008;-78
2022/01/31 08:12:08;;;;;;;;;1.75;1.50;;;;;9.18;100.00;101813.00;5077198;27;45664;-79
2022/01/31 08:14:34;;;;;;;;;2.75;2.00;;;;;9.23;100.00;101819.38;5080362;28;45508;-80
2022/01/31 08:17:00;;;;;;;;;2.25;1.75;;;;;9.32;100.00;101834.59;5080100;27;45749;-81
2022/01/31 08:19:26;;;;;;;;;1.00;1.00;;;;;9.36;100.00;101829.72;5077048;28;46379;-84
2022/01/31 08:21:54;;;;;;;;;2.00;1.50;;;;;9.35;100.00;101825.34;5080478;27;45745;-84
2022/01/31 08:24:19;;;;;;;;;4.75;2.00;;;;;9.36;100.00;101847.81;5060013;28;45903;-84
2022/01/31 08:26:45;;;;;;;;;4.00;1.00;;;;;9.34;100.00;101839.06;5080799;28;45474;-86
2022/01/31 08:29:22;;;;;;;;;1.00;0.00;;;;;9.31;100.00;101813.00;5066903;28;45615;-86
2022/01/31 08:31:52;;;;;;;;;4.00;1.25;;;;;9.32;100.00;101832.00;5078422;28;45842;-88
2022/01/31 08:34:23;;;;;;;;;2.00;1.50;;;;;9.36;100.00;101828.81;5082492;27;45475;-82
2022/01/31 08:36:49;;;;;;;;;4.00;1.00;;;;;9.32;100.00;101852.69;5079059;27;45596;-81
2022/01/31 08:39:21;;;;;;;;;3.75;1.00;;;;;9.38;100.00;101837.56;5071748;28;45287;-82
2022/01/31 08:41:51;;;;;;;;;6.75;3.75;;;;;9.42;100.00;101829.22;5085974;27;45340;-87
2022/01/31 08:44:19;;;;;;;;;4.50;2.00;;;;;9.44;100.00;101822.47;5087657;27;45370;-85
2022/01/31 08:46:48;;;;;;;;;2.00;1.50;;;;;9.42;100.00;101824.94;5077840;27;45466;-84
2022/01/31 08:49:18;;;;;;;;;5.25;2.00;;;;;9.40;100.00;101844.63;5068830;28;45366;-84
2022/01/31 08:51:45;;;;;;;;;2.25;1.00;;;;;9.44;100.00;101849.22;5077157;27;45477;-85
2022/01/31 08:54:12;;;;;;;;;3.00;2.50;;;;;9.40;100.00;101849.78;5077358;27;45272;-85
2022/01/31 08:56:40;;;;;;;;;4.00;2.00;;;;;9.44;100.00;101876.75;5059821;28;47193;-87
2022/01/31 08:59:12;;;;;;;;;3.00;2.00;;;;;9.48;100.00;101868.41;5084994;28;45188;-93
2022/01/31 09:01:38;;;;;;;;;4.00;1.75;;;;;9.43;100.00;101869.81;5063039;28;45247;-84
2022/01/31 09:04:08;;;;;;;;;4.00;2.25;;;;;9.38;100.00;101841.06;5078614;28;45668;-80
2022/01/31 09:06:35;;;;;;;;;5.00;2.50;;;;;9.49;100.00;101849.50;5060077;28;47393;-80
2022/01/31 09:09:05;;;;;;;;;9.75;3.25;;;;;9.50;100.00;101846.13;5080594;28;45356;-85
2022/01/31 09:11:37;;;;;;;;;3.50;1.75;;;;;9.54;100.00;101836.88;5083845;28;46201;-86
2022/01/31 09:14:04;;;;;;;;;5.50;3.00;;;;;9.53;100.00;101810.16;5063859;28;45404;-86
2022/01/31 09:16:30;;;;;;;;;1.00;1.00;;;;;9.51;100.00;101822.06;5079777;28;46212;-85
2022/01/31 09:18:59;;;;;;;;;2.00;2.00;;;;;9.49;100.00;101821.06;5077973;28;45188;-88
2022/01/31 09:21:24;;;;;;;;;5.00;3.00;;;;;9.50;100.00;101819.41;5079158;28;45418;-85
2022/01/31 09:23:52;;;;;;;;;4.25;3.00;;;;;9.44;99.07;101818.19;5086083;27;45402;-85
2022/01/31 09:26:23;;;;;;;;;3.25;1.75;;;;;9.42;97.89;101837.00;5082434;27;45374;-86
2022/01/31 09:28:53;;;;;;;;;2.25;2.00;;;;;9.42;98.50;101834.41;5098736;27;45495;-85
2022/01/31 09:31:19;;;;;;;;;2.25;1.00;;;;;9.41;99.97;101817.97;5073325;28;45546;-81
2022/01/31 09:33:45;;;;;;;;;2.00;1.50;;;;;9.42;99.02;101824.94;5060204;28;45476;-83
2022/01/31 09:36:11;;;;;;;;;1.75;1.75;;;;;9.53;96.88;101817.00;5097931;27;46081;-80
2022/01/31 09:38:36;;;;;;;;;2.50;2.00;;;;;9.62;95.32;101837.41;5060199;28;45427;-82
2022/01/31 09:41:02;;;;;;;;;4.50;4.00;;;;;9.60;95.74;101835.59;5080701;27;45976;-82
2022/01/31 09:48:45;;;;;;;;;2.75;2.75;;;;;9.76;95.64;101846.97;5077347;28;45238;-81
2022/01/31 09:51:12;;;;;;;;;3.25;2.00;;;;;9.82;90.73;101861.97;5085252;27;45211;-83
2022/01/31 09:53:42;;;;;;;;;1.00;1.00;;;;;9.79;91.89;101833.31;5062920;27;45403;-82
2022/01/31 09:56:10;;;;;;;;;2.00;2.00;;;;;9.81;91.69;101878.28;5072555;28;46331;-81
2022/01/31 09:58:41;;;;;;;;;2.50;1.75;;;;;9.77;90.78;101851.34;5059098;28;45783;-82
2022/01/31 10:01:10;;;;;;;;;3.00;3.00;;;;;9.71;91.15;101859.59;5091472;27;45381;-87
2022/01/31 10:03:51;;;;;;;;;4.00;2.00;;;;;9.63;91.31;101875.38;5078117;28;45293;-81
2022/01/31 10:06:25;;;;;;;;;0.25;0.00;;;;;9.51;92.04;101872.88;5077696;27;45270;-83
2022/01/31 10:09:03;;;;;;;;;4.00;4.00;;;;;9.45;92.40;101866.50;5077126;28;45863;-82
2022/01/31 10:11:39;;;;;;;;;3.00;0.75;;;;;9.49;90.48;101870.19;5078115;28;45238;-82
2022/01/31 10:17:11;;;;;;;;;1.50;0.00;;;;;9.64;88.54;101861.66;5080494;28;45748;-82
2022/01/31 10:19:42;;;;;;;;;4.25;3.00;;;;;9.75;88.35;101858.97;5077097;27;45390;-84
2022/01/31 10:22:12;;;;;;;;;4.25;0.75;;;;;9.85;86.52;101877.66;5077953;28;45373;-82
2022/01/31 10:24:40;;;;;;;;;1.75;1.00;;;;;9.85;86.28;101876.00;5076952;27;45621;-81
2022/01/31 10:27:08;;;;;;;;;3.00;2.00;;;;;9.83;95.39;101893.09;5060615;28;47137;-84
2022/01/31 10:29:34;;;;;;;;;3.75;1.50;;;;;9.76;94.93;101919.38;5077119;28;45532;-83
2022/01/31 10:32:10;;;;;;;;;1.00;1.00;;;;;9.65;97.76;101897.06;5078133;27;45464;-80
2022/01/31 10:34:58;;;;;;;;;3.00;1.00;;;;;9.53;100.00;101889.38;5056707;28;45859;-79
2022/01/31 10:37:26;;;;;;;;;5.00;1.75;;;;;9.45;100.00;101906.97;5081283;28;47725;-88
2022/01/31 10:54:12;;;;;;;;;4.00;2.00;;;;;9.78;90.18;101903.94;5078073;28;45378;-77
2022/01/31 10:56:43;;;;;;;;;4.00;1.75;;;;;9.82;90.86;101893.91;5084557;28;45374;-81
2022/01/31 10:59:17;;;;;;;;;0.25;0.25;;;;;9.89;89.00;101908.13;5079897;28;45338;-79
2022/01/31 11:01:47;;;;;;;;;2.00;1.00;;;;;9.93;86.77;101891.09;5077652;28;45295;-80
2022/01/31 11:04:17;;;;;;;;;1.00;1.00;;;;;9.97;86.09;101908.63;5079979;28;45361;-88
2022/01/31 11:06:45;;;;;;;;;0.00;0.00;;;;;10.06;82.19;101894.59;5080079;28;45430;-83
2022/01/31 11:09:16;;;;;;;;;2.00;2.00;;;;;10.05;82.97;101910.91;5059364;28;45507;-83
2022/01/31 11:11:46;;;;;;;;;1.75;1.25;;;;;10.00;83.97;101891.63;5057783;28;45727;-82
2022/01/31 11:14:16;;;;;;;;;4.75;4.00;;;;;10.01;81.70;101880.47;5076298;28;45414;-80
2022/01/31 11:16:44;;;;;;;;;1.75;0.75;;;;;10.14;81.32;101896.78;5076467;28;45275;-81
2022/01/31 11:19:12;;;;;;;;;2.50;1.00;;;;;10.15;77.25;101896.88;5067899;28;47907;-86
2022/01/31 11:21:43;;;;;;;;;3.75;2.00;;;;;10.13;76.89;101924.34;5058052;28;45731;-85
2022/01/31 11:24:31;;;;;;;;;3.25;1.50;;;;;10.16;81.99;101900.34;5060898;28;45295;-87
2022/01/31 11:27:07;;;;;;;;;2.25;0.75;;;;;10.15;83.73;101925.34;5081881;28;45174;-82
2022/01/31 11:29:37;;;;;;;;;1.25;1.00;;;;;10.09;85.78;101926.63;5081863;27;45532;-85
2022/01/31 11:32:04;;;;;;;;;1.75;1.00;;;;;10.02;87.22;101905.56;5076836;27;45462;-83
2022/01/31 11:34:31;;;;;;;;;2.00;1.00;;;;;9.94;88.25;101900.66;5076301;28;45380;-83
2022/01/31 11:36:57;;;;;;;;;2.75;1.00;;;;;9.93;87.90;101911.81;5075361;28;45970;-80
2022/01/31 11:39:24;;;;;;;;;1.00;1.00;;;;;9.97;89.05;101904.34;5076021;27;46168;-85
2022/01/31 11:41:58;;;;;;;;;6.75;1.75;;;;;10.03;87.78;101902.16;5075619;27;45848;-84
2022/01/31 11:44:34;;;;;;;;;1.50;1.00;;;;;10.09;87.36;101906.84;5079575;28;45455;-82
2022/01/31 11:47:04;;;;;;;;;2.50;2.00;;;;;10.10;87.97;101913.78;5083162;27;45344;-78
2022/01/31 11:49:45;;;;;;;;;2.00;2.00;;;;;10.03;87.75;101938.38;5084246;27;46209;-83
2022/01/31 11:52:11;;;;;;;;;1.00;1.00;;;;;9.84;100.00;101979.34;5081792;28;45355;-82
2022/01/31 11:54:53;;;;;;;;;2.00;0.00;;;;;9.44;100.00;101975.00;5089052;27;45346;-78